createdAt,value
2024-02-29T00:01:23.001Z,3.36
2024-02-29T00:03:50.433Z,3.36
2024-02-29T00:09:58.920Z,3.39
2024-02-29T00:12:26.393Z,3.36
2024-02-29T00:14:53.755Z,3.33
2024-02-29T00:17:21.454Z,3.36
2024-02-29T00:19:48.823Z,3.38
2024-02-29T00:22:16.174Z,3.37
2024-02-29T00:24:43.567Z,3.39
2024-02-29T00:27:10.890Z,3.38
2024-02-29T00:29:39.887Z,3.39
2024-02-29T00:32:09.432Z,3.36
2024-02-29T00:34:36.905Z,3.36
2024-02-29T00:37:04.344Z,3.36
2024-02-29T00:39:31.844Z,3.38
2024-02-29T00:41:59.234Z,3.40
2024-02-29T00:44:26.684Z,3.39
2024-02-29T00:46:54.055Z,3.37
2024-02-29T00:49:21.425Z,3.37
2024-02-29T00:51:49.347Z,3.34
2024-02-29T00:54:16.739Z,3.28
2024-02-29T00:56:44.186Z,3.22
2024-02-29T00:59:11.777Z,3.20
2024-02-29T01:01:39.269Z,3.22
2024-02-29T01:04:06.796Z,3.27
2024-02-29T01:06:34.182Z,3.30
2024-02-29T01:09:01.803Z,3.30
2024-02-29T01:11:29.716Z,3.27
2024-02-29T01:13:57.163Z,3.25
2024-02-29T01:16:24.452Z,3.25
2024-02-29T01:18:51.926Z,3.26
2024-02-29T01:21:19.264Z,3.22
2024-02-29T01:23:46.837Z,3.20
2024-02-29T01:26:14.316Z,3.20
2024-02-29T01:28:41.715Z,3.17
2024-02-29T01:31:09.052Z,3.17
2024-02-29T01:33:37.853Z,3.19
2024-02-29T01:36:05.349Z,3.14
2024-02-29T01:38:32.739Z,3.15
2024-02-29T01:41:00.036Z,3.16
2024-02-29T01:43:30.800Z,3.16
2024-02-29T01:46:15.000Z,3.14
2024-02-29T01:48:42.923Z,3.13
2024-02-29T01:51:11.656Z,3.12
2024-02-29T01:53:39.350Z,3.15
2024-02-29T01:56:06.990Z,3.15
2024-02-29T01:58:35.555Z,3.16
2024-02-29T02:01:03.033Z,3.15
2024-02-29T02:03:30.945Z,3.19
2024-02-29T02:05:58.301Z,3.17
2024-02-29T02:08:28.162Z,3.12
2024-02-29T02:10:55.486Z,3.11
2024-02-29T02:13:23.324Z,3.07
2024-02-29T02:15:50.918Z,3.06
2024-02-29T02:18:18.606Z,3.08
2024-02-29T02:20:46.010Z,3.07
2024-02-29T02:23:13.365Z,3.07
2024-02-29T02:25:40.714Z,3.05
2024-02-29T02:28:08.130Z,3.07
2024-02-29T02:30:35.602Z,3.06
2024-02-29T02:33:03.137Z,3.04
2024-02-29T02:35:30.610Z,3.05
2024-02-29T02:37:57.992Z,3.05
2024-02-29T02:40:25.417Z,3.03
2024-02-29T02:42:52.803Z,3.02
2024-02-29T02:45:20.134Z,3.05
2024-02-29T02:47:47.575Z,3.05
2024-02-29T02:50:15.656Z,3.03
2024-02-29T02:52:43.117Z,3.01
2024-02-29T02:55:10.414Z,3.00
2024-02-29T02:57:37.851Z,2.95
2024-02-29T03:00:06.766Z,2.93
2024-02-29T03:02:34.759Z,2.92
2024-02-29T03:05:02.110Z,2.90
2024-02-29T03:07:29.481Z,2.93
2024-02-29T03:09:56.888Z,2.92
2024-02-29T03:12:24.363Z,2.91
2024-02-29T03:14:51.723Z,2.92
2024-02-29T03:17:19.721Z,2.92
2024-02-29T03:19:47.097Z,2.89
2024-02-29T03:22:14.953Z,2.92
2024-02-29T03:24:44.811Z,2.90
2024-02-29T03:27:12.648Z,2.89
2024-02-29T03:29:40.037Z,2.87
2024-02-29T03:32:07.282Z,2.88
2024-02-29T03:34:34.625Z,2.88
2024-02-29T03:37:02.016Z,2.87
2024-02-29T03:39:29.844Z,2.87
2024-02-29T03:41:57.192Z,2.85
2024-02-29T03:44:24.478Z,2.86
2024-02-29T03:46:51.992Z,2.87
2024-02-29T03:49:19.440Z,2.86
2024-02-29T03:51:46.948Z,2.82
2024-02-29T03:54:14.343Z,2.83
2024-02-29T03:56:41.683Z,2.81
2024-02-29T03:59:09.018Z,2.81
2024-02-29T04:01:38.264Z,2.84
2024-02-29T04:04:05.713Z,2.87
2024-02-29T04:06:33.169Z,2.87
2024-02-29T04:09:00.582Z,2.88
2024-02-29T04:11:28.044Z,2.87
2024-02-29T04:13:56.194Z,2.85
2024-02-29T04:16:23.825Z,2.84
2024-02-29T04:18:51.359Z,2.82
2024-02-29T04:21:18.875Z,2.79
2024-02-29T04:23:46.195Z,2.75
2024-02-29T04:26:13.700Z,2.72
2024-02-29T04:28:41.035Z,2.71
2024-02-29T04:31:08.414Z,2.69
2024-02-29T04:33:37.814Z,2.65
2024-02-29T04:36:05.471Z,2.66
2024-02-29T04:38:32.813Z,2.68
2024-02-29T04:41:00.133Z,2.70
2024-02-29T04:43:27.733Z,2.70
2024-02-29T04:45:56.502Z,2.72
2024-02-29T04:48:23.921Z,2.72
2024-02-29T04:50:51.184Z,2.71
2024-02-29T04:53:19.197Z,2.71
2024-02-29T04:55:46.526Z,2.71
2024-02-29T04:58:13.958Z,2.75
2024-02-29T05:00:41.389Z,2.76
2024-02-29T05:03:08.828Z,2.75
2024-02-29T05:05:36.228Z,2.75
2024-02-29T05:08:04.176Z,2.75
2024-02-29T05:10:31.548Z,2.77
2024-02-29T05:12:58.930Z,2.76
2024-02-29T05:15:26.251Z,2.75
2024-02-29T05:17:54.676Z,2.75
2024-02-29T05:20:22.010Z,2.77
2024-02-29T05:22:52.310Z,2.77
2024-02-29T05:25:19.654Z,2.78
2024-02-29T05:27:47.008Z,2.78
2024-02-29T05:30:16.152Z,2.77
2024-02-29T05:32:43.933Z,2.86
2024-02-29T05:35:12.253Z,2.95
2024-02-29T05:37:39.630Z,2.98
2024-02-29T05:40:07.597Z,3.00
2024-02-29T05:42:35.324Z,3.00
2024-02-29T05:45:02.759Z,3.01
2024-02-29T05:47:30.106Z,3.00
2024-02-29T05:49:57.735Z,3.00
2024-02-29T05:52:25.110Z,3.01
2024-02-29T05:54:52.561Z,3.02
2024-02-29T05:57:19.890Z,3.00
2024-02-29T05:59:47.516Z,2.99
2024-02-29T06:02:14.850Z,2.99
2024-02-29T06:04:42.215Z,2.99
2024-02-29T06:07:09.754Z,2.99
2024-02-29T06:09:37.983Z,2.99
2024-02-29T06:12:05.635Z,3.01
2024-02-29T06:14:33.030Z,3.04
2024-02-29T06:17:00.400Z,3.07
2024-02-29T06:19:27.788Z,2.95
2024-02-29T06:21:55.265Z,2.93
2024-02-29T06:24:22.631Z,2.94
2024-02-29T06:26:50.149Z,2.96
2024-02-29T06:29:17.511Z,2.97
2024-02-29T06:31:44.941Z,2.99
2024-02-29T06:34:12.445Z,3.00
2024-02-29T06:36:39.917Z,3.03
2024-02-29T06:39:09.561Z,3.05
2024-02-29T06:41:37.949Z,3.05
2024-02-29T06:44:07.690Z,3.07
2024-02-29T06:46:35.195Z,3.11
2024-02-29T06:49:03.126Z,3.16
2024-02-29T06:51:31.359Z,3.21
2024-02-29T06:53:58.767Z,3.22
2024-02-29T06:56:26.124Z,3.24
2024-02-29T06:58:53.657Z,3.28
2024-02-29T07:01:23.894Z,3.32
2024-02-29T07:03:51.353Z,3.32
2024-02-29T07:06:18.780Z,3.33
2024-02-29T07:08:47.288Z,3.34
2024-02-29T07:11:15.604Z,3.34
2024-02-29T07:13:43.030Z,3.34
2024-02-29T07:16:11.720Z,3.37
2024-02-29T07:18:39.167Z,3.41
2024-02-29T07:21:06.654Z,3.46
2024-02-29T07:23:34.257Z,3.49
2024-02-29T07:26:05.494Z,3.48
2024-02-29T07:28:33.094Z,3.52
2024-02-29T07:31:00.522Z,3.56
2024-02-29T07:33:28.926Z,3.58
2024-02-29T07:35:56.276Z,3.58
2024-02-29T07:38:23.603Z,3.60
2024-02-29T07:40:51.132Z,3.62
2024-02-29T07:43:19.026Z,3.62
2024-02-29T07:45:46.405Z,3.64
2024-02-29T07:48:14.734Z,3.71
2024-02-29T07:50:42.077Z,3.75
2024-02-29T07:53:09.969Z,3.76
2024-02-29T07:55:38.521Z,3.80
2024-02-29T07:58:08.124Z,3.81
2024-02-29T08:00:37.572Z,3.82
2024-02-29T08:03:06.390Z,3.81
2024-02-29T08:05:39.715Z,3.80
2024-02-29T08:08:09.260Z,3.81
2024-02-29T08:10:36.589Z,3.88
2024-02-29T08:13:04.420Z,3.93
2024-02-29T08:15:38.095Z,3.95
2024-02-29T08:18:05.671Z,3.99
2024-02-29T08:20:33.015Z,3.98
2024-02-29T08:23:00.442Z,4.04
2024-02-29T08:25:28.020Z,4.02
2024-02-29T08:27:55.761Z,4.03
2024-02-29T08:30:23.210Z,4.08
2024-02-29T08:32:51.091Z,4.11
2024-02-29T08:35:20.235Z,4.15
2024-02-29T08:37:47.646Z,4.20
2024-02-29T08:40:15.528Z,4.25
2024-02-29T08:42:42.966Z,4.21
2024-02-29T08:45:10.885Z,4.23
2024-02-29T08:47:38.204Z,4.32
2024-02-29T08:50:07.286Z,4.42
2024-02-29T08:52:35.417Z,4.54
2024-02-29T08:55:02.899Z,4.52
2024-02-29T08:57:30.538Z,4.55
2024-02-29T08:59:57.850Z,4.73
2024-02-29T09:02:25.270Z,4.83
2024-02-29T09:04:52.882Z,4.79
2024-02-29T09:07:20.446Z,4.80
2024-02-29T09:09:47.774Z,4.86
2024-02-29T09:12:18.486Z,4.92
2024-02-29T09:14:47.945Z,4.96
2024-02-29T09:17:16.220Z,4.90
2024-02-29T09:19:43.708Z,4.82
2024-02-29T09:22:11.195Z,4.81
2024-02-29T09:24:38.724Z,4.82
2024-02-29T09:27:06.329Z,4.83
2024-02-29T09:29:34.806Z,4.81
2024-02-29T09:32:03.849Z,4.85
2024-02-29T09:34:36.399Z,4.92
2024-02-29T09:37:06.568Z,5.01
2024-02-29T09:39:34.379Z,5.10
2024-02-29T09:42:12.503Z,5.12
2024-02-29T09:44:41.831Z,5.11
2024-02-29T09:47:20.969Z,5.07
2024-02-29T09:50:09.410Z,5.05
2024-02-29T09:52:40.432Z,5.10
2024-02-29T09:55:15.017Z,5.11
2024-02-29T09:57:43.071Z,5.15
2024-02-29T10:00:13.908Z,5.20
2024-02-29T10:05:27.939Z,5.59
2024-02-29T10:07:55.422Z,5.54
2024-02-29T10:10:22.819Z,5.46
2024-02-29T10:12:57.222Z,5.38
2024-02-29T10:15:28.271Z,5.50
2024-02-29T10:17:57.399Z,5.73
2024-02-29T10:20:26.114Z,5.74
2024-02-29T10:26:34.226Z,5.68
2024-02-29T10:29:11.397Z,5.75
2024-02-29T10:31:39.914Z,5.87
2024-02-29T10:34:11.130Z,5.81
2024-02-29T10:36:38.558Z,5.86
2024-02-29T10:39:05.980Z,5.87
2024-02-29T10:41:33.914Z,5.88
2024-02-29T10:44:07.462Z,5.92
2024-02-29T10:46:39.441Z,5.91
2024-02-29T10:49:32.008Z,5.95
2024-02-29T10:52:11.011Z,6.03
2024-02-29T10:54:47.663Z,6.07
2024-02-29T10:57:16.862Z,6.06
2024-02-29T10:59:55.517Z,6.14
2024-02-29T11:02:23.012Z,6.22
2024-02-29T11:04:50.417Z,6.28
2024-02-29T11:07:18.490Z,6.34
2024-02-29T11:09:45.826Z,6.36
2024-02-29T11:12:17.527Z,6.39
2024-02-29T11:14:46.322Z,6.44
2024-02-29T11:17:17.152Z,6.50
2024-02-29T11:19:52.116Z,6.62
2024-02-29T11:22:34.713Z,6.65
2024-02-29T11:25:12.080Z,6.74
2024-02-29T11:27:47.285Z,6.75
2024-02-29T11:30:18.371Z,6.73
2024-02-29T11:32:45.745Z,6.75
2024-02-29T11:35:13.069Z,6.88
2024-02-29T11:37:41.050Z,6.91
2024-02-29T11:40:08.887Z,6.93
2024-02-29T11:42:37.922Z,6.98
2024-02-29T11:45:05.971Z,6.99
2024-02-29T11:47:33.406Z,7.03
2024-02-29T11:50:01.770Z,7.11
2024-02-29T11:52:29.467Z,7.17
2024-02-29T11:54:57.254Z,7.22
2024-02-29T11:57:24.997Z,7.31
2024-02-29T11:59:54.735Z,7.35
2024-02-29T12:02:23.527Z,7.37
2024-02-29T12:04:50.809Z,7.36
2024-02-29T12:07:18.746Z,7.42
2024-02-29T12:09:47.019Z,7.45
2024-02-29T12:12:14.661Z,7.44
2024-02-29T12:14:43.981Z,7.37
2024-02-29T12:17:11.361Z,7.34
2024-02-29T12:19:41.445Z,7.41
2024-02-29T12:22:13.778Z,7.45
2024-02-29T12:24:43.634Z,7.43
2024-02-29T12:27:11.173Z,7.43
2024-02-29T12:29:38.568Z,7.40
2024-02-29T12:32:06.099Z,7.34
2024-02-29T12:34:33.529Z,7.33
2024-02-29T12:37:01.937Z,7.38
2024-02-29T12:39:29.214Z,7.46
2024-02-29T12:41:56.658Z,7.55
2024-02-29T12:44:23.932Z,7.58
2024-02-29T12:46:57.430Z,7.63
2024-02-29T12:49:25.012Z,7.70
2024-02-29T12:51:54.954Z,7.79
2024-02-29T12:54:23.281Z,7.76
2024-02-29T12:56:50.667Z,7.76
2024-02-29T12:59:19.000Z,7.77
2024-02-29T13:01:52.006Z,7.83
2024-02-29T13:04:19.325Z,7.82
2024-02-29T13:06:46.758Z,7.81
2024-02-29T13:09:14.150Z,7.86
2024-02-29T13:11:41.526Z,7.92
2024-02-29T13:14:08.843Z,7.94
2024-02-29T13:16:36.202Z,7.98
2024-02-29T13:19:03.529Z,8.01
2024-02-29T13:21:30.845Z,7.91
2024-02-29T13:23:58.270Z,7.88
2024-02-29T13:26:25.800Z,7.94
2024-02-29T13:28:53.197Z,7.86
2024-02-29T13:31:20.573Z,7.85
2024-02-29T13:33:47.964Z,7.88
2024-02-29T13:36:15.470Z,7.89
2024-02-29T13:38:42.994Z,7.89
2024-02-29T13:41:11.218Z,7.82
2024-02-29T13:43:38.723Z,7.80
2024-02-29T13:46:06.107Z,7.78
2024-02-29T13:48:33.431Z,7.81
2024-02-29T13:51:00.733Z,7.82
2024-02-29T13:53:28.033Z,7.72
2024-02-29T13:55:55.532Z,7.70
2024-02-29T13:58:23.017Z,7.73
2024-02-29T14:00:50.627Z,7.73
2024-02-29T14:03:18.079Z,7.77
2024-02-29T14:05:45.377Z,7.74
2024-02-29T14:08:12.674Z,7.70
2024-02-29T14:10:39.973Z,7.69
2024-02-29T14:13:08.469Z,7.67
2024-02-29T14:15:35.792Z,7.63
2024-02-29T14:18:04.270Z,7.63
2024-02-29T14:20:31.742Z,7.65
2024-02-29T14:22:59.104Z,7.65
2024-02-29T14:25:27.021Z,7.68
2024-02-29T14:27:55.004Z,7.69
2024-02-29T14:30:22.395Z,7.71
2024-02-29T14:32:49.843Z,7.73
2024-02-29T14:35:17.226Z,7.73
2024-02-29T14:37:44.610Z,7.67
2024-02-29T14:40:12.843Z,7.62
2024-02-29T14:42:40.722Z,7.63
2024-02-29T14:45:08.604Z,7.62
2024-02-29T14:47:36.113Z,7.60
2024-02-29T14:50:03.477Z,7.62
2024-02-29T14:52:30.931Z,7.58
2024-02-29T14:54:58.430Z,7.56
2024-02-29T14:57:25.953Z,7.47
2024-02-29T14:59:53.457Z,7.44
2024-02-29T15:02:20.778Z,7.40
2024-02-29T15:04:48.166Z,7.34
2024-02-29T15:07:15.850Z,7.31
2024-02-29T15:09:43.260Z,7.29
2024-02-29T15:12:10.605Z,7.27
2024-02-29T15:14:38.053Z,7.24
2024-02-29T15:17:05.580Z,7.18
2024-02-29T15:19:33.033Z,7.14
2024-02-29T15:22:00.450Z,7.09
2024-02-29T15:24:30.173Z,7.07
2024-02-29T15:27:00.816Z,6.99
2024-02-29T15:29:28.352Z,6.93
2024-02-29T15:31:55.780Z,6.93
2024-02-29T15:34:23.250Z,6.85
2024-02-29T15:36:50.706Z,6.85
2024-02-29T15:39:18.029Z,6.89
2024-02-29T15:41:45.396Z,6.86
2024-02-29T15:44:12.689Z,6.90
2024-02-29T15:46:40.334Z,6.88
2024-02-29T15:49:07.873Z,6.88
2024-02-29T15:51:35.300Z,6.87
2024-02-29T15:54:02.845Z,6.83
2024-02-29T15:56:30.819Z,6.82
2024-02-29T15:58:58.346Z,6.79
2024-02-29T16:01:26.061Z,6.80
2024-02-29T16:03:54.107Z,6.77
2024-02-29T16:06:21.459Z,6.81
2024-02-29T16:08:48.805Z,6.85
2024-02-29T16:11:16.534Z,6.90
2024-02-29T16:13:43.937Z,6.93
2024-02-29T16:16:12.104Z,6.89
2024-02-29T16:18:39.494Z,6.83
2024-02-29T16:21:07.567Z,6.85
2024-02-29T16:23:37.952Z,6.82
2024-02-29T16:26:06.352Z,6.85
2024-02-29T16:28:33.707Z,6.84
2024-02-29T16:31:01.127Z,6.83
2024-02-29T16:33:28.480Z,6.84
2024-02-29T16:35:55.783Z,6.89
2024-02-29T16:38:23.187Z,6.89
2024-02-29T16:40:50.658Z,6.95
2024-02-29T16:43:22.038Z,6.95
2024-02-29T16:45:50.358Z,6.97
2024-02-29T16:48:17.794Z,6.99
2024-02-29T16:50:46.314Z,6.97
2024-02-29T16:53:13.837Z,7.01
2024-02-29T16:55:41.191Z,6.93
2024-02-29T16:58:08.736Z,6.80
2024-02-29T17:00:36.904Z,6.66
2024-02-29T17:03:05.436Z,6.55
2024-02-29T17:05:33.409Z,6.42
2024-02-29T17:08:00.792Z,6.32
2024-02-29T17:10:28.402Z,6.27
2024-02-29T17:12:59.631Z,6.19
2024-02-29T17:15:27.312Z,6.11
2024-02-29T17:17:54.742Z,6.04
2024-02-29T17:20:22.484Z,5.98
2024-02-29T17:22:49.912Z,5.92
2024-02-29T17:25:17.305Z,5.88
2024-02-29T17:27:45.775Z,5.80
2024-02-29T17:30:13.364Z,5.72
2024-02-29T17:32:41.078Z,5.68
2024-02-29T17:35:09.191Z,5.72
2024-02-29T17:37:36.606Z,5.80
2024-02-29T17:40:04.188Z,5.86
2024-02-29T17:42:31.700Z,5.98
2024-02-29T17:44:59.074Z,6.06
2024-02-29T17:47:26.307Z,6.13
2024-02-29T17:49:53.558Z,6.20
2024-02-29T17:52:21.011Z,6.21
2024-02-29T17:54:48.539Z,6.24
2024-02-29T17:57:15.958Z,6.29
2024-02-29T17:59:43.201Z,6.34
2024-02-29T18:02:10.994Z,6.36
2024-02-29T18:04:38.893Z,6.37
2024-02-29T18:07:06.313Z,6.37
2024-02-29T18:09:33.800Z,6.38
2024-02-29T18:12:01.114Z,6.40
2024-02-29T18:14:30.336Z,6.40
2024-02-29T18:16:57.937Z,6.38
2024-02-29T18:19:25.255Z,6.36
2024-02-29T18:21:53.088Z,6.34
2024-02-29T18:24:21.456Z,6.29
2024-02-29T18:26:49.317Z,6.25
2024-02-29T18:29:17.497Z,6.22
2024-02-29T18:31:44.875Z,6.18
2024-02-29T18:34:12.242Z,6.14
2024-02-29T18:36:40.691Z,6.16
2024-02-29T18:39:13.180Z,6.16
2024-02-29T18:41:42.307Z,6.17
2024-02-29T18:44:10.506Z,6.11
2024-02-29T18:46:40.035Z,6.04
2024-02-29T18:49:07.763Z,5.98
2024-02-29T18:51:35.274Z,5.96
2024-02-29T18:54:02.572Z,5.91
2024-02-29T18:56:29.968Z,5.90
2024-02-29T18:58:58.217Z,5.89
2024-02-29T19:01:25.578Z,5.87
2024-02-29T19:03:53.711Z,5.89
2024-02-29T19:06:20.995Z,5.92
2024-02-29T19:08:48.376Z,5.97
2024-02-29T19:11:15.752Z,5.96
2024-02-29T19:13:43.003Z,5.97
2024-02-29T19:16:11.972Z,6.01
2024-02-29T19:18:39.317Z,6.03
2024-02-29T19:21:06.658Z,6.03
2024-02-29T19:23:33.981Z,6.03
2024-02-29T19:26:01.520Z,6.07
2024-02-29T19:28:33.989Z,6.13
2024-02-29T19:31:05.901Z,6.14
2024-02-29T19:33:33.290Z,6.15
2024-02-29T19:36:07.207Z,6.12
2024-02-29T19:38:46.754Z,6.15
2024-02-29T19:41:14.455Z,6.15
2024-02-29T19:43:42.332Z,6.21
2024-02-29T19:46:11.229Z,6.24
2024-02-29T19:48:38.906Z,6.29
2024-02-29T19:51:08.651Z,6.34
2024-02-29T19:53:38.636Z,6.36
2024-02-29T19:56:07.349Z,6.39
2024-02-29T19:58:35.146Z,6.42
2024-02-29T20:01:04.747Z,6.44
2024-02-29T20:03:32.114Z,6.47
2024-02-29T20:05:59.614Z,6.51
2024-02-29T20:08:26.889Z,6.51
2024-02-29T20:10:54.346Z,6.54
2024-02-29T20:13:22.489Z,6.55
2024-02-29T20:15:51.049Z,6.56
2024-02-29T20:18:19.781Z,6.57
2024-02-29T20:20:47.161Z,6.58
2024-02-29T20:23:15.477Z,6.58
2024-02-29T20:25:46.041Z,6.61
2024-02-29T20:28:14.763Z,6.61
2024-02-29T20:30:42.280Z,6.62
2024-02-29T20:33:11.303Z,6.63
2024-02-29T20:35:39.199Z,6.62
2024-02-29T20:38:06.660Z,6.64
2024-02-29T20:40:34.830Z,6.63
2024-02-29T20:43:02.342Z,6.63
2024-02-29T20:45:31.061Z,6.64
2024-02-29T20:47:58.360Z,6.65
2024-02-29T20:50:28.543Z,6.67
2024-02-29T20:52:55.775Z,6.67
2024-02-29T20:55:23.141Z,6.67
2024-02-29T20:57:50.471Z,6.68
2024-02-29T21:00:18.089Z,6.67
2024-02-29T21:02:45.435Z,6.66
2024-02-29T21:05:12.727Z,6.69
2024-02-29T21:07:42.216Z,6.69
2024-02-29T21:10:11.795Z,6.70
2024-02-29T21:12:39.184Z,6.68
2024-02-29T21:15:06.874Z,6.67
2024-02-29T21:17:34.207Z,6.70
2024-02-29T21:20:01.581Z,6.71
2024-02-29T21:22:29.239Z,6.73
2024-02-29T21:24:56.746Z,6.72
2024-02-29T21:27:24.029Z,6.71
2024-02-29T21:29:52.614Z,6.70
2024-02-29T21:32:19.878Z,6.71
2024-02-29T21:34:47.216Z,6.69
2024-02-29T21:37:14.504Z,6.67
2024-02-29T21:39:45.150Z,6.67
2024-02-29T21:42:14.149Z,6.66
2024-02-29T21:44:41.722Z,6.68
2024-02-29T21:47:09.259Z,6.69
2024-02-29T21:49:36.509Z,6.68
2024-02-29T21:52:04.313Z,6.68
2024-02-29T21:54:31.822Z,6.67
2024-02-29T21:56:59.295Z,6.66
2024-02-29T21:59:26.607Z,6.66
2024-02-29T22:01:55.631Z,6.66
2024-02-29T22:04:23.402Z,6.67
2024-02-29T22:06:52.642Z,6.67
2024-02-29T22:09:20.159Z,6.68
2024-02-29T22:11:47.462Z,6.66
2024-02-29T22:14:14.684Z,6.67
2024-02-29T22:16:44.884Z,6.65
2024-02-29T22:19:12.668Z,6.69
2024-02-29T22:21:39.970Z,6.69
2024-02-29T22:24:07.406Z,6.69
2024-02-29T22:26:34.940Z,6.70
2024-02-29T22:29:03.179Z,6.71
2024-02-29T22:31:31.303Z,6.71
2024-02-29T22:33:59.392Z,6.72
2024-02-29T22:36:26.679Z,6.74
2024-02-29T22:38:53.915Z,6.75
2024-02-29T22:41:21.115Z,6.77
2024-02-29T22:43:48.521Z,6.78
2024-02-29T22:46:15.823Z,6.81
2024-02-29T22:48:43.161Z,6.82
2024-02-29T22:51:10.428Z,6.81
2024-02-29T22:53:37.844Z,6.87
2024-02-29T22:56:05.843Z,6.86
2024-02-29T22:58:33.221Z,6.88
2024-02-29T23:01:00.638Z,6.88
2024-02-29T23:03:27.971Z,6.92
2024-02-29T23:05:55.219Z,6.96
2024-02-29T23:08:22.515Z,6.96
2024-02-29T23:10:49.910Z,6.97
2024-02-29T23:13:17.379Z,7.02
2024-02-29T23:15:44.718Z,7.05
2024-02-29T23:18:12.055Z,7.09
2024-02-29T23:20:39.331Z,7.08
2024-02-29T23:23:06.708Z,7.12
2024-02-29T23:25:34.226Z,7.14
2024-02-29T23:28:02.539Z,7.16
2024-02-29T23:30:29.721Z,7.22
2024-02-29T23:32:57.115Z,7.21
2024-02-29T23:35:24.341Z,7.26
2024-02-29T23:37:52.300Z,7.28
2024-02-29T23:40:19.887Z,7.29
2024-02-29T23:42:47.356Z,7.31
2024-02-29T23:45:14.656Z,7.36
2024-02-29T23:47:42.078Z,7.37
2024-02-29T23:50:10.197Z,7.41
2024-02-29T23:52:37.722Z,7.41
2024-02-29T23:55:06.392Z,7.43
2024-02-29T23:57:33.741Z,7.44
